sensor_id;sensor_type;location;lat;lon;timestamp;P1;durP1;ratioP1;P2;durP2;ratioP2
46815;SDS011;32787;53.316;8.670;2023-12-07T00:01:08;41.13;;;21.98;;
46815;SDS011;32787;53.316;8.670;2023-12-07T00:03:34;40.05;;;23.00;;
46815;SDS011;32787;53.316;8.670;2023-12-07T00:06:00;35.88;;;21.20;;
46815;SDS011;32787;53.316;8.670;2023-12-07T00:08:25;41.13;;;23.00;;
46815;SDS011;32787;53.316;8.670;2023-12-07T00:10:51;39.33;;;22.40;;
46815;SDS011;32787;53.316;8.670;2023-12-07T00:13:16;37.55;;;23.13;;
46815;SDS011;32787;53.316;8.670;2023-12-07T00:15:42;37.70;;;22.35;;
46815;SDS011;32787;53.316;8.670;2023-12-07T00:18:08;38.00;;;21.98;;
46815;SDS011;32787;53.316;8.670;2023-12-07T00:20:34;36.70;;;22.27;;
46815;SDS011;32787;53.316;8.670;2023-12-07T00:22:59;38.22;;;21.52;;
46815;SDS011;32787;53.316;8.670;2023-12-07T00:25:25;37.85;;;22.67;;
46815;SDS011;32787;53.316;8.670;2023-12-07T00:27:51;38.40;;;22.55;;
46815;SDS011;32787;53.316;8.670;2023-12-07T00:30:17;38.35;;;20.85;;
46815;SDS011;32787;53.316;8.670;2023-12-07T00:32:43;37.38;;;20.58;;
46815;SDS011;32787;53.316;8.670;2023-12-07T00:35:09;35.08;;;20.88;;
46815;SDS011;32787;53.316;8.670;2023-12-07T00:37:35;36.40;;;20.95;;
46815;SDS011;32787;53.316;8.670;2023-12-07T00:40:01;37.33;;;22.02;;
46815;SDS011;32787;53.316;8.670;2023-12-07T00:42:27;35.38;;;19.90;;
46815;SDS011;32787;53.316;8.670;2023-12-07T00:44:54;33.38;;;20.35;;
46815;SDS011;32787;53.316;8.670;2023-12-07T00:47:20;38.17;;;20.95;;
46815;SDS011;32787;53.316;8.670;2023-12-07T00:49:46;37.67;;;21.05;;
46815;SDS011;32787;53.316;8.670;2023-12-07T00:52:11;35.28;;;21.55;;
46815;SDS011;32787;53.316;8.670;2023-12-07T00:54:37;33.70;;;20.02;;
46815;SDS011;32787;53.316;8.670;2023-12-07T00:57:04;34.00;;;20.35;;
46815;SDS011;32787;53.316;8.670;2023-12-07T00:59:30;34.15;;;20.05;;
46815;SDS011;32787;53.316;8.670;2023-12-07T01:02:02;33.75;;;19.70;;
46815;SDS011;32787;53.316;8.670;2023-12-07T01:04:28;36.33;;;20.65;;
46815;SDS011;32787;53.316;8.670;2023-12-07T01:06:55;31.27;;;18.58;;
46815;SDS011;32787;53.316;8.670;2023-12-07T01:09:20;34.60;;;19.33;;
46815;SDS011;32787;53.316;8.670;2023-12-07T01:11:47;34.42;;;19.65;;
46815;SDS011;32787;53.316;8.670;2023-12-07T01:14:13;33.15;;;19.75;;
46815;SDS011;32787;53.316;8.670;2023-12-07T01:16:39;32.58;;;19.05;;
46815;SDS011;32787;53.316;8.670;2023-12-07T01:19:04;35.50;;;20.42;;
46815;SDS011;32787;53.316;8.670;2023-12-07T01:21:32;35.08;;;21.00;;
46815;SDS011;32787;53.316;8.670;2023-12-07T01:23:57;33.63;;;20.10;;
46815;SDS011;32787;53.316;8.670;2023-12-07T01:26:23;35.20;;;20.58;;
46815;SDS011;32787;53.316;8.670;2023-12-07T01:28:49;34.17;;;19.67;;
46815;SDS011;32787;53.316;8.670;2023-12-07T01:31:14;37.28;;;20.75;;
46815;SDS011;32787;53.316;8.670;2023-12-07T01:33:40;36.17;;;20.10;;
46815;SDS011;32787;53.316;8.670;2023-12-07T01:36:06;39.00;;;20.55;;
46815;SDS011;32787;53.316;8.670;2023-12-07T01:38:32;34.85;;;21.10;;
46815;SDS011;32787;53.316;8.670;2023-12-07T01:40:57;34.15;;;20.05;;
46815;SDS011;32787;53.316;8.670;2023-12-07T01:43:23;35.55;;;20.15;;
46815;SDS011;32787;53.316;8.670;2023-12-07T01:45:49;34.10;;;19.85;;
46815;SDS011;32787;53.316;8.670;2023-12-07T01:48:18;33.13;;;19.17;;
46815;SDS011;32787;53.316;8.670;2023-12-07T01:53:14;34.58;;;18.90;;
46815;SDS011;32787;53.316;8.670;2023-12-07T01:55:42;36.55;;;19.65;;
46815;SDS011;32787;53.316;8.670;2023-12-07T01:58:08;33.78;;;18.83;;
46815;SDS011;32787;53.316;8.670;2023-12-07T02:00:34;31.65;;;18.10;;
46815;SDS011;32787;53.316;8.670;2023-12-07T02:03:02;33.65;;;18.77;;
46815;SDS011;32787;53.316;8.670;2023-12-07T02:05:30;31.73;;;18.85;;
46815;SDS011;32787;53.316;8.670;2023-12-07T02:07:57;33.97;;;20.02;;
46815;SDS011;32787;53.316;8.670;2023-12-07T02:10:23;36.05;;;21.35;;
46815;SDS011;32787;53.316;8.670;2023-12-07T02:12:49;32.58;;;19.20;;
46815;SDS011;32787;53.316;8.670;2023-12-07T02:15:18;33.78;;;19.33;;
46815;SDS011;32787;53.316;8.670;2023-12-07T02:23:00;35.90;;;19.92;;
46815;SDS011;32787;53.316;8.670;2023-12-07T02:26:32;31.92;;;18.38;;
46815;SDS011;32787;53.316;8.670;2023-12-07T02:28:56;32.30;;;18.85;;
46815;SDS011;32787;53.316;8.670;2023-12-07T02:31:21;32.75;;;18.10;;
46815;SDS011;32787;53.316;8.670;2023-12-07T02:33:47;33.03;;;19.50;;
46815;SDS011;32787;53.316;8.670;2023-12-07T02:36:13;31.60;;;18.98;;
46815;SDS011;32787;53.316;8.670;2023-12-07T02:38:42;31.88;;;18.35;;
46815;SDS011;32787;53.316;8.670;2023-12-07T02:41:11;34.78;;;19.52;;
46815;SDS011;32787;53.316;8.670;2023-12-07T02:43:37;32.97;;;19.25;;
46815;SDS011;32787;53.316;8.670;2023-12-07T02:46:03;30.02;;;18.02;;
46815;SDS011;32787;53.316;8.670;2023-12-07T02:48:29;35.05;;;19.35;;
46815;SDS011;32787;53.316;8.670;2023-12-07T02:50:55;34.42;;;20.13;;
46815;SDS011;32787;53.316;8.670;2023-12-07T02:53:21;52.03;;;20.75;;
46815;SDS011;32787;53.316;8.670;2023-12-07T02:55:46;49.33;;;20.55;;
46815;SDS011;32787;53.316;8.670;2023-12-07T02:58:12;46.03;;;19.50;;
46815;SDS011;32787;53.316;8.670;2023-12-07T03:00:37;36.50;;;21.33;;
46815;SDS011;32787;53.316;8.670;2023-12-07T03:03:03;32.35;;;18.83;;
46815;SDS011;32787;53.316;8.670;2023-12-07T03:05:29;35.28;;;19.50;;
46815;SDS011;32787;53.316;8.670;2023-12-07T03:07:54;35.28;;;18.95;;
46815;SDS011;32787;53.316;8.670;2023-12-07T03:10:20;33.95;;;18.77;;
46815;SDS011;32787;53.316;8.670;2023-12-07T03:12:45;34.58;;;18.35;;
46815;SDS011;32787;53.316;8.670;2023-12-07T03:15:11;33.30;;;18.60;;
46815;SDS011;32787;53.316;8.670;2023-12-07T03:17:38;33.10;;;19.77;;
46815;SDS011;32787;53.316;8.670;2023-12-07T03:20:04;32.47;;;18.38;;
46815;SDS011;32787;53.316;8.670;2023-12-07T03:22:30;37.88;;;20.65;;
46815;SDS011;32787;53.316;8.670;2023-12-07T03:24:56;35.65;;;18.35;;
46815;SDS011;32787;53.316;8.670;2023-12-07T03:27:22;32.00;;;18.35;;
46815;SDS011;32787;53.316;8.670;2023-12-07T03:29:47;33.85;;;19.98;;
46815;SDS011;32787;53.316;8.670;2023-12-07T03:32:13;32.80;;;18.45;;
46815;SDS011;32787;53.316;8.670;2023-12-07T03:34:39;31.75;;;18.40;;
46815;SDS011;32787;53.316;8.670;2023-12-07T03:37:04;37.47;;;21.00;;
46815;SDS011;32787;53.316;8.670;2023-12-07T03:39:30;34.55;;;19.52;;
46815;SDS011;32787;53.316;8.670;2023-12-07T03:41:57;29.92;;;17.55;;
46815;SDS011;32787;53.316;8.670;2023-12-07T03:44:23;33.70;;;17.77;;
46815;SDS011;32787;53.316;8.670;2023-12-07T03:46:51;33.78;;;19.60;;
46815;SDS011;32787;53.316;8.670;2023-12-07T03:49:17;33.25;;;19.83;;
46815;SDS011;32787;53.316;8.670;2023-12-07T03:51:43;34.45;;;20.33;;
46815;SDS011;32787;53.316;8.670;2023-12-07T03:54:08;39.17;;;21.58;;
46815;SDS011;32787;53.316;8.670;2023-12-07T03:56:34;36.25;;;20.75;;
46815;SDS011;32787;53.316;8.670;2023-12-07T03:59:00;41.30;;;21.70;;
46815;SDS011;32787;53.316;8.670;2023-12-07T04:01:26;37.97;;;21.58;;
46815;SDS011;32787;53.316;8.670;2023-12-07T04:03:54;39.08;;;21.80;;
46815;SDS011;32787;53.316;8.670;2023-12-07T04:06:21;40.05;;;20.73;;
46815;SDS011;32787;53.316;8.670;2023-12-07T04:08:48;40.30;;;20.70;;
46815;SDS011;32787;53.316;8.670;2023-12-07T04:11:14;36.97;;;20.33;;
46815;SDS011;32787;53.316;8.670;2023-12-07T04:13:40;36.75;;;20.55;;
46815;SDS011;32787;53.316;8.670;2023-12-07T04:16:06;32.70;;;19.23;;
46815;SDS011;32787;53.316;8.670;2023-12-07T04:18:33;34.92;;;19.95;;
46815;SDS011;32787;53.316;8.670;2023-12-07T04:20:59;40.92;;;20.25;;
46815;SDS011;32787;53.316;8.670;2023-12-07T04:23:24;36.78;;;20.70;;
46815;SDS011;32787;53.316;8.670;2023-12-07T04:25:50;36.95;;;21.02;;
46815;SDS011;32787;53.316;8.670;2023-12-07T04:28:16;38.47;;;19.90;;
46815;SDS011;32787;53.316;8.670;2023-12-07T04:30:41;36.30;;;19.90;;
46815;SDS011;32787;53.316;8.670;2023-12-07T04:33:07;36.28;;;20.10;;
46815;SDS011;32787;53.316;8.670;2023-12-07T04:35:33;40.95;;;20.88;;
46815;SDS011;32787;53.316;8.670;2023-12-07T04:37:59;35.20;;;20.17;;
46815;SDS011;32787;53.316;8.670;2023-12-07T04:40:25;35.25;;;19.50;;
46815;SDS011;32787;53.316;8.670;2023-12-07T04:42:51;33.08;;;18.90;;
46815;SDS011;32787;53.316;8.670;2023-12-07T04:45:17;35.85;;;20.00;;
46815;SDS011;32787;53.316;8.670;2023-12-07T04:47:42;35.70;;;20.00;;
46815;SDS011;32787;53.316;8.670;2023-12-07T04:50:08;30.23;;;16.92;;
46815;SDS011;32787;53.316;8.670;2023-12-07T04:52:37;33.58;;;19.45;;
46815;SDS011;32787;53.316;8.670;2023-12-07T04:55:03;34.22;;;18.35;;
46815;SDS011;32787;53.316;8.670;2023-12-07T04:57:31;32.80;;;18.67;;
46815;SDS011;32787;53.316;8.670;2023-12-07T05:00:00;36.55;;;19.85;;
46815;SDS011;32787;53.316;8.670;2023-12-07T05:02:25;36.88;;;19.08;;
46815;SDS011;32787;53.316;8.670;2023-12-07T05:04:52;38.10;;;19.77;;
46815;SDS011;32787;53.316;8.670;2023-12-07T05:07:19;38.22;;;20.02;;
46815;SDS011;32787;53.316;8.670;2023-12-07T05:09:45;34.80;;;19.65;;
46815;SDS011;32787;53.316;8.670;2023-12-07T05:12:10;35.72;;;17.80;;
46815;SDS011;32787;53.316;8.670;2023-12-07T05:14:36;31.90;;;18.60;;
46815;SDS011;32787;53.316;8.670;2023-12-07T05:17:02;30.92;;;17.25;;
46815;SDS011;32787;53.316;8.670;2023-12-07T05:19:27;34.40;;;18.35;;
46815;SDS011;32787;53.316;8.670;2023-12-07T05:21:53;33.88;;;18.08;;
46815;SDS011;32787;53.316;8.670;2023-12-07T05:24:19;31.60;;;18.08;;
46815;SDS011;32787;53.316;8.670;2023-12-07T05:26:45;32.55;;;18.10;;
46815;SDS011;32787;53.316;8.670;2023-12-07T05:29:14;31.83;;;17.25;;
46815;SDS011;32787;53.316;8.670;2023-12-07T05:31:40;35.35;;;18.35;;
46815;SDS011;32787;53.316;8.670;2023-12-07T05:34:09;31.80;;;17.48;;
46815;SDS011;32787;53.316;8.670;2023-12-07T05:36:35;30.30;;;17.55;;
46815;SDS011;32787;53.316;8.670;2023-12-07T05:39:00;37.00;;;20.42;;
46815;SDS011;32787;53.316;8.670;2023-12-07T05:41:26;36.33;;;19.42;;
46815;SDS011;32787;53.316;8.670;2023-12-07T05:43:52;32.50;;;18.98;;
46815;SDS011;32787;53.316;8.670;2023-12-07T05:46:18;35.22;;;19.85;;
46815;SDS011;32787;53.316;8.670;2023-12-07T05:48:44;36.53;;;19.77;;
46815;SDS011;32787;53.316;8.670;2023-12-07T05:51:13;33.03;;;19.05;;
46815;SDS011;32787;53.316;8.670;2023-12-07T05:53:40;36.08;;;19.63;;
46815;SDS011;32787;53.316;8.670;2023-12-07T05:56:06;35.20;;;19.63;;
46815;SDS011;32787;53.316;8.670;2023-12-07T05:58:32;38.05;;;20.63;;
46815;SDS011;32787;53.316;8.670;2023-12-07T06:00:58;36.00;;;19.77;;
46815;SDS011;32787;53.316;8.670;2023-12-07T06:03:25;39.35;;;20.42;;
46815;SDS011;32787;53.316;8.670;2023-12-07T06:05:51;37.28;;;19.90;;
46815;SDS011;32787;53.316;8.670;2023-12-07T06:08:17;36.90;;;19.75;;
46815;SDS011;32787;53.316;8.670;2023-12-07T06:10:42;37.45;;;20.20;;
46815;SDS011;32787;53.316;8.670;2023-12-07T06:13:08;40.30;;;19.92;;
46815;SDS011;32787;53.316;8.670;2023-12-07T06:15:34;37.15;;;20.00;;
46815;SDS011;32787;53.316;8.670;2023-12-07T06:17:59;38.60;;;20.67;;
46815;SDS011;32787;53.316;8.670;2023-12-07T06:20:26;38.95;;;20.58;;
46815;SDS011;32787;53.316;8.670;2023-12-07T06:22:51;39.40;;;20.02;;
46815;SDS011;32787;53.316;8.670;2023-12-07T06:25:17;42.42;;;20.05;;
46815;SDS011;32787;53.316;8.670;2023-12-07T06:27:43;36.20;;;18.80;;
46815;SDS011;32787;53.316;8.670;2023-12-07T06:30:09;38.88;;;19.17;;
46815;SDS011;32787;53.316;8.670;2023-12-07T06:32:35;36.28;;;18.83;;
46815;SDS011;32787;53.316;8.670;2023-12-07T06:35:02;37.58;;;19.10;;
46815;SDS011;32787;53.316;8.670;2023-12-07T06:37:29;34.78;;;18.70;;
46815;SDS011;32787;53.316;8.670;2023-12-07T06:39:55;38.20;;;19.98;;
46815;SDS011;32787;53.316;8.670;2023-12-07T06:42:21;37.03;;;19.67;;
46815;SDS011;32787;53.316;8.670;2023-12-07T06:44:47;35.92;;;20.17;;
46815;SDS011;32787;53.316;8.670;2023-12-07T06:47:14;33.53;;;19.00;;
46815;SDS011;32787;53.316;8.670;2023-12-07T06:49:40;37.45;;;19.95;;
46815;SDS011;32787;53.316;8.670;2023-12-07T06:52:06;37.78;;;19.77;;
46815;SDS011;32787;53.316;8.670;2023-12-07T06:54:31;34.60;;;19.02;;
46815;SDS011;32787;53.316;8.670;2023-12-07T06:56:57;32.30;;;18.23;;
46815;SDS011;32787;53.316;8.670;2023-12-07T06:59:23;36.08;;;19.52;;
46815;SDS011;32787;53.316;8.670;2023-12-07T07:01:49;33.67;;;18.95;;
46815;SDS011;32787;53.316;8.670;2023-12-07T07:04:14;37.88;;;18.77;;
46815;SDS011;32787;53.316;8.670;2023-12-07T07:06:41;33.35;;;18.33;;
46815;SDS011;32787;53.316;8.670;2023-12-07T07:09:07;32.78;;;18.90;;
46815;SDS011;32787;53.316;8.670;2023-12-07T07:11:33;35.28;;;18.73;;
46815;SDS011;32787;53.316;8.670;2023-12-07T07:13:59;34.05;;;17.65;;
46815;SDS011;32787;53.316;8.670;2023-12-07T07:16:25;31.73;;;17.05;;
46815;SDS011;32787;53.316;8.670;2023-12-07T07:18:51;34.33;;;19.13;;
46815;SDS011;32787;53.316;8.670;2023-12-07T07:21:16;29.63;;;17.15;;
46815;SDS011;32787;53.316;8.670;2023-12-07T07:23:44;35.88;;;18.15;;
46815;SDS011;32787;53.316;8.670;2023-12-07T07:26:10;33.28;;;17.90;;
46815;SDS011;32787;53.316;8.670;2023-12-07T07:28:35;32.38;;;17.33;;
46815;SDS011;32787;53.316;8.670;2023-12-07T07:31:01;31.73;;;17.55;;
46815;SDS011;32787;53.316;8.670;2023-12-07T07:33:27;33.42;;;18.40;;
46815;SDS011;32787;53.316;8.670;2023-12-07T07:35:53;34.10;;;18.35;;
46815;SDS011;32787;53.316;8.670;2023-12-07T07:38:19;36.75;;;19.20;;
46815;SDS011;32787;53.316;8.670;2023-12-07T07:40:45;39.55;;;20.10;;
46815;SDS011;32787;53.316;8.670;2023-12-07T07:43:12;44.97;;;22.25;;
46815;SDS011;32787;53.316;8.670;2023-12-07T07:45:38;51.67;;;27.75;;
46815;SDS011;32787;53.316;8.670;2023-12-07T07:48:03;53.97;;;26.90;;
46815;SDS011;32787;53.316;8.670;2023-12-07T07:50:29;41.25;;;22.85;;
46815;SDS011;32787;53.316;8.670;2023-12-07T07:52:55;44.45;;;23.02;;
46815;SDS011;32787;53.316;8.670;2023-12-07T07:55:21;39.13;;;21.30;;
46815;SDS011;32787;53.316;8.670;2023-12-07T07:57:46;41.58;;;20.70;;
46815;SDS011;32787;53.316;8.670;2023-12-07T08:00:12;53.25;;;32.17;;
46815;SDS011;32787;53.316;8.670;2023-12-07T08:02:38;44.15;;;26.05;;
46815;SDS011;32787;53.316;8.670;2023-12-07T08:05:04;42.22;;;24.30;;
46815;SDS011;32787;53.316;8.670;2023-12-07T08:07:30;42.00;;;24.08;;
46815;SDS011;32787;53.316;8.670;2023-12-07T08:09:56;39.25;;;22.70;;
46815;SDS011;32787;53.316;8.670;2023-12-07T08:12:21;42.63;;;22.70;;
46815;SDS011;32787;53.316;8.670;2023-12-07T08:14:50;54.10;;;27.25;;
46815;SDS011;32787;53.316;8.670;2023-12-07T08:17:15;68.88;;;33.95;;
46815;SDS011;32787;53.316;8.670;2023-12-07T08:19:41;77.18;;;39.03;;
46815;SDS011;32787;53.316;8.670;2023-12-07T08:22:07;48.00;;;26.42;;
46815;SDS011;32787;53.316;8.670;2023-12-07T08:24:33;39.33;;;22.13;;
46815;SDS011;32787;53.316;8.670;2023-12-07T08:26:59;44.72;;;24.08;;
46815;SDS011;32787;53.316;8.670;2023-12-07T08:29:25;43.90;;;23.70;;
46815;SDS011;32787;53.316;8.670;2023-12-07T08:31:50;39.92;;;21.85;;
46815;SDS011;32787;53.316;8.670;2023-12-07T08:34:16;54.10;;;28.73;;
46815;SDS011;32787;53.316;8.670;2023-12-07T08:36:42;64.85;;;31.63;;
46815;SDS011;32787;53.316;8.670;2023-12-07T08:39:07;55.38;;;27.42;;
46815;SDS011;32787;53.316;8.670;2023-12-07T08:41:36;47.28;;;25.98;;
46815;SDS011;32787;53.316;8.670;2023-12-07T08:44:02;48.10;;;25.45;;
46815;SDS011;32787;53.316;8.670;2023-12-07T08:46:28;42.88;;;22.17;;
46815;SDS011;32787;53.316;8.670;2023-12-07T08:48:54;37.95;;;20.30;;
46815;SDS011;32787;53.316;8.670;2023-12-07T08:51:21;35.00;;;19.08;;
46815;SDS011;32787;53.316;8.670;2023-12-07T08:53:47;39.58;;;20.48;;
46815;SDS011;32787;53.316;8.670;2023-12-07T08:56:13;41.95;;;22.13;;
46815;SDS011;32787;53.316;8.670;2023-12-07T08:58:39;40.67;;;21.20;;
46815;SDS011;32787;53.316;8.670;2023-12-07T09:01:04;37.53;;;19.95;;
46815;SDS011;32787;53.316;8.670;2023-12-07T09:03:30;36.38;;;19.52;;
46815;SDS011;32787;53.316;8.670;2023-12-07T09:05:57;34.78;;;19.75;;
46815;SDS011;32787;53.316;8.670;2023-12-07T09:08:23;36.38;;;20.20;;
46815;SDS011;32787;53.316;8.670;2023-12-07T09:10:49;34.17;;;18.52;;
46815;SDS011;32787;53.316;8.670;2023-12-07T09:13:16;33.22;;;18.13;;
46815;SDS011;32787;53.316;8.670;2023-12-07T09:15:42;33.60;;;19.35;;
46815;SDS011;32787;53.316;8.670;2023-12-07T09:18:08;34.60;;;18.60;;
46815;SDS011;32787;53.316;8.670;2023-12-07T09:20:34;35.60;;;18.83;;
46815;SDS011;32787;53.316;8.670;2023-12-07T09:22:59;32.00;;;18.10;;
46815;SDS011;32787;53.316;8.670;2023-12-07T09:25:25;32.05;;;17.20;;
46815;SDS011;32787;53.316;8.670;2023-12-07T09:27:53;38.15;;;18.75;;
46815;SDS011;32787;53.316;8.670;2023-12-07T09:30:18;32.97;;;18.50;;
46815;SDS011;32787;53.316;8.670;2023-12-07T09:32:44;31.55;;;17.67;;
46815;SDS011;32787;53.316;8.670;2023-12-07T09:35:10;34.67;;;17.70;;
46815;SDS011;32787;53.316;8.670;2023-12-07T09:37:44;32.13;;;17.10;;
46815;SDS011;32787;53.316;8.670;2023-12-07T09:40:20;32.38;;;18.67;;
46815;SDS011;32787;53.316;8.670;2023-12-07T09:42:47;35.38;;;19.00;;
46815;SDS011;32787;53.316;8.670;2023-12-07T09:45:14;33.70;;;18.92;;
46815;SDS011;32787;53.316;8.670;2023-12-07T09:50:10;34.10;;;18.60;;
46815;SDS011;32787;53.316;8.670;2023-12-07T09:52:37;35.25;;;19.90;;
46815;SDS011;32787;53.316;8.670;2023-12-07T09:55:04;35.25;;;19.60;;
46815;SDS011;32787;53.316;8.670;2023-12-07T09:57:30;39.63;;;20.67;;
46815;SDS011;32787;53.316;8.670;2023-12-07T09:59:57;37.08;;;19.17;;
46815;SDS011;32787;53.316;8.670;2023-12-07T10:02:22;39.63;;;19.80;;
46815;SDS011;32787;53.316;8.670;2023-12-07T10:04:49;38.80;;;21.17;;
46815;SDS011;32787;53.316;8.670;2023-12-07T10:07:32;32.28;;;17.20;;
46815;SDS011;32787;53.316;8.670;2023-12-07T10:10:02;42.75;;;19.70;;
46815;SDS011;32787;53.316;8.670;2023-12-07T10:12:32;33.70;;;19.05;;
46815;SDS011;32787;53.316;8.670;2023-12-07T10:15:00;36.75;;;18.10;;
46815;SDS011;32787;53.316;8.670;2023-12-07T10:20:24;31.83;;;16.77;;
46815;SDS011;32787;53.316;8.670;2023-12-07T10:23:04;27.75;;;16.90;;
46815;SDS011;32787;53.316;8.670;2023-12-07T10:25:32;32.63;;;16.40;;
46815;SDS011;32787;53.316;8.670;2023-12-07T10:28:02;28.85;;;15.45;;
46815;SDS011;32787;53.316;8.670;2023-12-07T10:30:36;31.45;;;17.48;;
46815;SDS011;32787;53.316;8.670;2023-12-07T10:33:04;28.90;;;15.93;;
46815;SDS011;32787;53.316;8.670;2023-12-07T10:35:32;28.35;;;15.75;;
46815;SDS011;32787;53.316;8.670;2023-12-07T10:37:58;27.58;;;16.23;;
46815;SDS011;32787;53.316;8.670;2023-12-07T10:40:23;32.50;;;17.75;;
46815;SDS011;32787;53.316;8.670;2023-12-07T10:42:49;30.92;;;17.23;;
46815;SDS011;32787;53.316;8.670;2023-12-07T10:45:21;31.23;;;16.88;;
46815;SDS011;32787;53.316;8.670;2023-12-07T10:47:50;31.15;;;16.95;;
46815;SDS011;32787;53.316;8.670;2023-12-07T10:50:21;34.55;;;18.75;;
46815;SDS011;32787;53.316;8.670;2023-12-07T10:52:50;31.52;;;17.77;;
46815;SDS011;32787;53.316;8.670;2023-12-07T10:55:21;32.70;;;17.95;;
46815;SDS011;32787;53.316;8.670;2023-12-07T10:57:52;30.92;;;17.70;;
46815;SDS011;32787;53.316;8.670;2023-12-07T11:00:20;30.02;;;17.95;;
46815;SDS011;32787;53.316;8.670;2023-12-07T11:02:52;38.63;;;18.95;;
46815;SDS011;32787;53.316;8.670;2023-12-07T11:05:18;34.45;;;19.50;;
46815;SDS011;32787;53.316;8.670;2023-12-07T11:07:49;35.35;;;19.05;;
46815;SDS011;32787;53.316;8.670;2023-12-07T11:13:32;31.20;;;17.95;;
46815;SDS011;32787;53.316;8.670;2023-12-07T11:16:00;32.13;;;18.73;;
46815;SDS011;32787;53.316;8.670;2023-12-07T11:18:27;37.58;;;21.75;;
46815;SDS011;32787;53.316;8.670;2023-12-07T11:20:54;32.40;;;18.17;;
46815;SDS011;32787;53.316;8.670;2023-12-07T11:23:20;36.17;;;19.00;;
46815;SDS011;32787;53.316;8.670;2023-12-07T11:25:47;35.35;;;19.98;;
46815;SDS011;32787;53.316;8.670;2023-12-07T11:28:15;34.28;;;19.30;;
46815;SDS011;32787;53.316;8.670;2023-12-07T11:30:42;31.05;;;18.13;;
46815;SDS011;32787;53.316;8.670;2023-12-07T11:33:09;33.25;;;18.23;;
46815;SDS011;32787;53.316;8.670;2023-12-07T11:38:29;31.30;;;17.05;;
46815;SDS011;32787;53.316;8.670;2023-12-07T11:40:55;27.77;;;16.17;;
46815;SDS011;32787;53.316;8.670;2023-12-07T11:46:08;27.45;;;16.65;;
46815;SDS011;32787;53.316;8.670;2023-12-07T11:48:35;27.75;;;16.50;;
46815;SDS011;32787;53.316;8.670;2023-12-07T11:51:04;31.60;;;16.88;;
46815;SDS011;32787;53.316;8.670;2023-12-07T11:53:35;26.70;;;14.82;;
46815;SDS011;32787;53.316;8.670;2023-12-07T11:56:03;29.38;;;16.00;;
46815;SDS011;32787;53.316;8.670;2023-12-07T11:58:31;29.13;;;15.48;;
46815;SDS011;32787;53.316;8.670;2023-12-07T12:00:57;26.27;;;15.65;;
46815;SDS011;32787;53.316;8.670;2023-12-07T12:03:24;30.50;;;16.08;;
46815;SDS011;32787;53.316;8.670;2023-12-07T12:05:50;30.38;;;16.42;;
46815;SDS011;32787;53.316;8.670;2023-12-07T12:08:16;26.48;;;15.68;;
46815;SDS011;32787;53.316;8.670;2023-12-07T12:10:43;29.95;;;15.70;;
46815;SDS011;32787;53.316;8.670;2023-12-07T12:13:10;28.75;;;15.98;;
46815;SDS011;32787;53.316;8.670;2023-12-07T12:15:37;29.55;;;15.93;;
46815;SDS011;32787;53.316;8.670;2023-12-07T12:18:04;28.88;;;16.05;;
46815;SDS011;32787;53.316;8.670;2023-12-07T12:20:30;29.33;;;16.35;;
46815;SDS011;32787;53.316;8.670;2023-12-07T12:22:57;30.02;;;17.33;;
46815;SDS011;32787;53.316;8.670;2023-12-07T12:25:24;32.55;;;16.65;;
46815;SDS011;32787;53.316;8.670;2023-12-07T12:27:56;32.38;;;17.52;;
46815;SDS011;32787;53.316;8.670;2023-12-07T12:30:31;32.47;;;17.35;;
46815;SDS011;32787;53.316;8.670;2023-12-07T12:32:58;29.30;;;15.85;;
46815;SDS011;32787;53.316;8.670;2023-12-07T12:35:27;27.02;;;15.25;;
46815;SDS011;32787;53.316;8.670;2023-12-07T12:37:53;29.83;;;16.60;;
46815;SDS011;32787;53.316;8.670;2023-12-07T12:40:21;24.38;;;15.05;;
46815;SDS011;32787;53.316;8.670;2023-12-07T12:42:49;31.45;;;17.50;;
46815;SDS011;32787;53.316;8.670;2023-12-07T12:45:16;28.05;;;16.00;;
46815;SDS011;32787;53.316;8.670;2023-12-07T12:47:46;31.42;;;16.65;;
46815;SDS011;32787;53.316;8.670;2023-12-07T12:50:32;27.52;;;15.85;;
46815;SDS011;32787;53.316;8.670;2023-12-07T12:53:03;28.67;;;17.10;;
46815;SDS011;32787;53.316;8.670;2023-12-07T12:55:39;30.55;;;16.65;;
46815;SDS011;32787;53.316;8.670;2023-12-07T12:58:07;25.50;;;15.63;;
46815;SDS011;32787;53.316;8.670;2023-12-07T13:00:34;30.83;;;15.55;;
46815;SDS011;32787;53.316;8.670;2023-12-07T13:03:03;31.75;;;16.98;;
46815;SDS011;32787;53.316;8.670;2023-12-07T13:05:30;33.67;;;18.08;;
46815;SDS011;32787;53.316;8.670;2023-12-07T13:07:57;32.92;;;17.73;;
46815;SDS011;32787;53.316;8.670;2023-12-07T13:10:24;29.77;;;17.42;;
46815;SDS011;32787;53.316;8.670;2023-12-07T13:12:51;32.70;;;17.50;;
46815;SDS011;32787;53.316;8.670;2023-12-07T13:15:16;30.65;;;16.30;;
46815;SDS011;32787;53.316;8.670;2023-12-07T13:17:43;31.83;;;16.45;;
46815;SDS011;32787;53.316;8.670;2023-12-07T13:20:09;30.15;;;17.17;;
46815;SDS011;32787;53.316;8.670;2023-12-07T13:22:36;31.00;;;17.95;;
46815;SDS011;32787;53.316;8.670;2023-12-07T13:25:03;29.27;;;17.40;;
46815;SDS011;32787;53.316;8.670;2023-12-07T13:27:29;30.60;;;16.77;;
46815;SDS011;32787;53.316;8.670;2023-12-07T13:29:54;30.83;;;15.80;;
46815;SDS011;32787;53.316;8.670;2023-12-07T13:32:20;31.27;;;16.88;;
46815;SDS011;32787;53.316;8.670;2023-12-07T13:34:45;29.80;;;17.00;;
46815;SDS011;32787;53.316;8.670;2023-12-07T13:37:11;33.22;;;17.05;;
46815;SDS011;32787;53.316;8.670;2023-12-07T13:39:37;31.80;;;16.75;;
46815;SDS011;32787;53.316;8.670;2023-12-07T13:42:03;34.30;;;18.10;;
46815;SDS011;32787;53.316;8.670;2023-12-07T13:44:29;34.70;;;18.77;;
46815;SDS011;32787;53.316;8.670;2023-12-07T13:46:56;31.58;;;18.88;;
46815;SDS011;32787;53.316;8.670;2023-12-07T13:49:21;31.00;;;16.85;;
46815;SDS011;32787;53.316;8.670;2023-12-07T13:51:47;33.28;;;19.10;;
46815;SDS011;32787;53.316;8.670;2023-12-07T13:54:13;31.13;;;17.33;;
46815;SDS011;32787;53.316;8.670;2023-12-07T13:56:38;32.70;;;17.15;;
46815;SDS011;32787;53.316;8.670;2023-12-07T13:59:04;33.88;;;18.35;;
46815;SDS011;32787;53.316;8.670;2023-12-07T14:01:32;32.30;;;17.45;;
46815;SDS011;32787;53.316;8.670;2023-12-07T14:03:58;33.22;;;17.00;;
46815;SDS011;32787;53.316;8.670;2023-12-07T14:06:24;28.90;;;16.23;;
46815;SDS011;32787;53.316;8.670;2023-12-07T14:08:50;28.80;;;17.25;;
46815;SDS011;32787;53.316;8.670;2023-12-07T14:11:19;34.05;;;17.88;;
46815;SDS011;32787;53.316;8.670;2023-12-07T14:13:45;29.30;;;16.73;;
46815;SDS011;32787;53.316;8.670;2023-12-07T14:16:14;29.30;;;17.13;;
46815;SDS011;32787;53.316;8.670;2023-12-07T14:18:39;30.05;;;17.05;;
46815;SDS011;32787;53.316;8.670;2023-12-07T14:21:05;33.95;;;19.42;;
46815;SDS011;32787;53.316;8.670;2023-12-07T14:23:31;33.40;;;18.20;;
46815;SDS011;32787;53.316;8.670;2023-12-07T14:25:57;37.38;;;21.40;;
46815;SDS011;32787;53.316;8.670;2023-12-07T14:28:24;39.85;;;21.05;;
46815;SDS011;32787;53.316;8.670;2023-12-07T14:30:50;34.92;;;19.70;;
46815;SDS011;32787;53.316;8.670;2023-12-07T14:33:21;32.92;;;19.60;;
46815;SDS011;32787;53.316;8.670;2023-12-07T14:35:47;38.58;;;22.65;;
46815;SDS011;32787;53.316;8.670;2023-12-07T14:38:14;41.70;;;24.20;;
46815;SDS011;32787;53.316;8.670;2023-12-07T14:40:40;47.55;;;26.42;;